Observation data for Muleshoe on 05/16/2018      Previous  Date  Next       Current Mesonet Observations  Soil Data  Daily Summary Page  Observations in Plain Language
KMUS 160500Z 34005KT 14/09 A3002 RMK A01 T01360090  RH  076%=      5-min Rain = 0
KMUS 160505Z 36004KT 13/09 A3003 RMK A01 T01310091  RH  079%=      5-min Rain = 0
KMUS 160510Z 03005KT 14/09 A3003 RMK A01 T01350093  RH  078%=      5-min Rain = 0
KMUS 160515Z 06005KT 14/09 A3003 RMK A01 T01380093  RH  076%=      5-min Rain = 0
KMUS 160520Z 06005KT 14/09 A3003 RMK A01 T01380094  RH  077%=      5-min Rain = 0
KMUS 160525Z 06005KT 14/10 A3003 RMK A01 T01400100  RH  080%=      5-min Rain = 0
KMUS 160530Z 08003KT 14/10 A3003 RMK A01 T01420103  RH  080%=      5-min Rain = 0
KMUS 160535Z 09004KT 14/10 A3003 RMK A01 T01360097  RH  080%=      5-min Rain = 0
KMUS 160540Z 09005KT 13/10 A3003 RMK A01 T01300097  RH  083%=      5-min Rain = 0
KMUS 160545Z 09005KT 13/10 A3004 RMK A01 T01260096  RH  084%=      5-min Rain = 0
KMUS 160550Z 10007KT 12/10 A3004 RMK A01 T01240097  RH  086%=      5-min Rain = 0
KMUS 160555Z 12007KT 13/10 A3004 RMK A01 T01260101  RH  087%=      5-min Rain = 0
KMUS 160600Z 13006KT 13/10 A3004 RMK A01 T01280099  RH  085%=      5-min Rain = 0
KMUS 160605Z 11005KT 13/10 A3003 RMK A01 T01280095  RH  083%=      5-min Rain = 0
KMUS 160610Z 10004KT 13/09 A3003 RMK A01 T01250093  RH  084%=      5-min Rain = 0
KMUS 160615Z 07004KT 12/09 A3003 RMK A01 T01220092  RH  085%=      5-min Rain = 0
KMUS 160620Z 05004KT 12/09 A3002 RMK A01 T01220094  RH  085%=      5-min Rain = 0
KMUS 160625Z 06005KT 12/09 A3002 RMK A01 T01220094  RH  085%=      5-min Rain = 0
KMUS 160630Z 07005KT 12/09 A3003 RMK A01 T01210094  RH  086%=      5-min Rain = 0
KMUS 160635Z 09005KT 12/10 A3003 RMK A01 T01220095  RH  086%=      5-min Rain = 0
KMUS 160640Z 05004KT 13/10 A3003 RMK A01 T01260097  RH  085%=      5-min Rain = 0
KMUS 160645Z 03007KT 13/10 A3004 RMK A01 T01280098  RH  085%=      5-min Rain = 0
KMUS 160650Z 03008KT 13/10 A3004 RMK A01 T01320100  RH  084%=      5-min Rain = 0
KMUS 160655Z 02009KT 13/10 A3004 RMK A01 T01340102  RH  083%=      5-min Rain = 0
KMUS 160700Z 03010KT 14/11 A3004 RMK A01 T01370105  RH  083%=      5-min Rain = 0
KMUS 160705Z 03010KT 14/11 A3004 RMK A01 T01420108  RH  083%=      5-min Rain = 0
KMUS 160710Z 04011KT 15/11 A3004 RMK A01 T01470109  RH  081%=      5-min Rain = 0
KMUS 160715Z 04010KT 15/11 A3004 RMK A01 T01500110  RH  080%=      5-min Rain = 0
KMUS 160720Z 05009KT 15/11 A3004 RMK A01 T01500111  RH  080%=      5-min Rain = 0
KMUS 160725Z 04011KT 15/11 A3004 RMK A01 T01500111  RH  080%=      5-min Rain = 0
KMUS 160730Z 04009KT 15/11 A3004 RMK A01 T01510112  RH  080%=      5-min Rain = 0
KMUS 160735Z 05008KT 15/11 A3004 RMK A01 T01510112  RH  080%=      5-min Rain = 0
KMUS 160740Z 05008KT 15/11 A3005 RMK A01 T01500111  RH  081%=      5-min Rain = 0
KMUS 160745Z 05008KT 15/11 A3005 RMK A01 T01490112  RH  081%=      5-min Rain = 0
KMUS 160750Z 06008KT 15/11 A3005 RMK A01 T01490112  RH  081%=      5-min Rain = 0
KMUS 160755Z 07008KT 15/11 A3005 RMK A01 T01470112  RH  082%=      5-min Rain = 0
KMUS 160800Z 07008KT 15/11 A3004 RMK A01 T01470112  RH  083%=      5-min Rain = 0
KMUS 160805Z 06009KT 15/11 A3005 RMK A01 T01470113  RH  083%=      5-min Rain = 0
KMUS 160810Z 07009KT 15/11 A3004 RMK A01 T01480113  RH  083%=      5-min Rain = 0
KMUS 160815Z 07009KT 15/11 A3004 RMK A01 T01490114  RH  083%=      5-min Rain = 0
KMUS 160820Z 06009KT 15/11 A3004 RMK A01 T01500114  RH  082%=      5-min Rain = 0
KMUS 160825Z 06008KT 15/11 A3005 RMK A01 T01490114  RH  082%=      5-min Rain = 0
KMUS 160830Z 06007KT 15/11 A3005 RMK A01 T01490114  RH  082%=      5-min Rain = 0
KMUS 160835Z 07007KT 15/11 A3005 RMK A01 T01490114  RH  082%=      5-min Rain = 0
KMUS 160840Z 07008KT 15/11 A3004 RMK A01 T01480114  RH  083%=      5-min Rain = 0
KMUS 160845Z 06008KT 15/11 A3005 RMK A01 T01470114  RH  084%=      5-min Rain = 0
KMUS 160850Z 07007KT 15/12 A3004 RMK A01 T01460115  RH  084%=      5-min Rain = 0
KMUS 160855Z 08007KT 15/11 A3004 RMK A01 T01450114  RH  085%=      5-min Rain = 0
KMUS 160900Z 08008KT 14/11 A3003 RMK A01 T01420114  RH  086%=      5-min Rain = 0
KMUS 160905Z 07008KT 14/12 A3004 RMK A01 T01420115  RH  087%=      5-min Rain = 0
KMUS 160910Z 07007KT 14/12 A3003 RMK A01 T01420116  RH  087%=      5-min Rain = 0
KMUS 160915Z 09006KT 14/11 A3003 RMK A01 T01400114  RH  088%=      5-min Rain = 0
KMUS 160920Z 09006KT 14/11 A3003 RMK A01 T01370113  RH  089%=      5-min Rain = 0
KMUS 160925Z 08006KT 13/11 A3003 RMK A01 T01340112  RH  090%=      5-min Rain = 0
KMUS 160930Z 07005KT 13/11 A3003 RMK A01 T01320112  RH  091%=      5-min Rain = 0
KMUS 160935Z 08005KT 13/11 A3004 RMK A01 T01320113  RH  091%=      5-min Rain = 0
KMUS 160940Z 08006KT 13/11 A3004 RMK A01 T01320113  RH  091%=      5-min Rain = 0
KMUS 160945Z 08006KT 13/11 A3004 RMK A01 T01320114  RH  092%=      5-min Rain = 0
KMUS 160950Z 06006KT 14/12 A3004 RMK A01 T01350118  RH  093%=      5-min Rain = 0
KMUS 160955Z 06005KT 14/12 A3004 RMK A01 T01380120  RH  092%=      5-min Rain = 0
KMUS 161000Z 06005KT 14/12 A3004 RMK A01 T01400121  RH  092%=      5-min Rain = 0
KMUS 161005Z 07005KT 14/12 A3004 RMK A01 T01420123  RH  091%=      5-min Rain = 0
KMUS 161010Z 07006KT 15/12 A3004 RMK A01 T01450124  RH  091%=      5-min Rain = 0
KMUS 161015Z 07006KT 15/13 A3004 RMK A01 T01460125  RH  090%=      5-min Rain = 0
KMUS 161020Z 07006KT 15/13 A3004 RMK A01 T01480126  RH  090%=      5-min Rain = 0
KMUS 161025Z 07006KT 15/13 A3004 RMK A01 T01500126  RH  089%=      5-min Rain = 0
KMUS 161030Z 09006KT 15/13 A3004 RMK A01 T01510127  RH  089%=      5-min Rain = 0
KMUS 161035Z 09007KT 15/13 A3004 RMK A01 T01520126  RH  088%=      5-min Rain = 0
KMUS 161040Z 08005KT 15/13 A3004 RMK A01 T01500125  RH  088%=      5-min Rain = 0
KMUS 161045Z 05004KT 15/13 A3005 RMK A01 T01500126  RH  089%=      5-min Rain = 0
KMUS 161050Z 04004KT 15/13 A3006 RMK A01 T01510127  RH  089%=      5-min Rain = 0
KMUS 161055Z 03005KT 15/13 A3006 RMK A01 T01540128  RH  088%=      5-min Rain = 0
KMUS 161100Z 04006KT 16/13 A3006 RMK A01 T01560128  RH  087%=      5-min Rain = 0
KMUS 161105Z 06006KT 16/13 A3006 RMK A01 T01580128  RH  086%=      5-min Rain = 0
KMUS 161110Z 06007KT 16/13 A3005 RMK A01 T01590128  RH  085%=      5-min Rain = 0
KMUS 161115Z 06007KT 16/13 A3006 RMK A01 T01610129  RH  085%=      5-min Rain = 0
KMUS 161120Z 06006KT 16/13 A3006 RMK A01 T01620129  RH  084%=      5-min Rain = 0
KMUS 161125Z 06006KT 16/13 A3006 RMK A01 T01630129  RH  083%=      5-min Rain = 0
KMUS 161130Z 06007KT 16/13 A3006 RMK A01 T01640129  RH  083%=      5-min Rain = 0
KMUS 161135Z 06006KT 16/13 A3006 RMK A01 T01640128  RH  083%=      5-min Rain = 0
KMUS 161140Z 06007KT 17/13 A3007 RMK A01 T01650128  RH  082%=      5-min Rain = 0
KMUS 161145Z 06007KT 17/13 A3007 RMK A01 T01650128  RH  082%=      5-min Rain = 0
KMUS 161150Z 07007KT 17/13 A3007 RMK A01 T01660128  RH  082%=      5-min Rain = 0
KMUS 161155Z 07007KT 17/13 A3007 RMK A01 T01660128  RH  082%=      5-min Rain = 0
KMUS 161200Z 07007KT 17/13 A3007 RMK A01 T01660128  RH  081%=      5-min Rain = 0
KMUS 161205Z 07007KT 17/13 A3007 RMK A01 T01660128  RH  081%=      5-min Rain = 0
KMUS 161210Z 07007KT 17/13 A3007 RMK A01 T01670129  RH  082%=      5-min Rain = 0
KMUS 161215Z 07008KT 17/13 A3007 RMK A01 T01670129  RH  081%=      5-min Rain = 0
KMUS 161220Z 07008KT 17/13 A3008 RMK A01 T01670129  RH  081%=      5-min Rain = 0
KMUS 161225Z 07008KT 17/13 A3008 RMK A01 T01670130  RH  082%=      5-min Rain = 0
KMUS 161230Z 07008KT 17/13 A3008 RMK A01 T01680130  RH  082%=      5-min Rain = 0
KMUS 161235Z 07008KT 17/13 A3008 RMK A01 T01680131  RH  082%=      5-min Rain = 0
KMUS 161240Z 08008KT 17/13 A3009 RMK A01 T01680131  RH  082%=      5-min Rain = 0
KMUS 161245Z 08010KT 17/13 A3009 RMK A01 T01690131  RH  082%=      5-min Rain = 0
KMUS 161250Z 08009KT 17/13 A3009 RMK A01 T01690131  RH  082%=      5-min Rain = 0
KMUS 161255Z 09011KT 17/13 A3009 RMK A01 T01690131  RH  081%=      5-min Rain = 0
KMUS 161300Z 09010KT 17/13 A3009 RMK A01 T01700131  RH  081%=      5-min Rain = 0
KMUS 161305Z 09010KT 17/13 A3009 RMK A01 T01710132  RH  081%=      5-min Rain = 0
KMUS 161310Z 10010KT 17/13 A3009 RMK A01 T01720133  RH  081%=      5-min Rain = 0
KMUS 161315Z 10010KT 17/13 A3009 RMK A01 T01720133  RH  081%=      5-min Rain = 0
KMUS 161320Z 10010KT 17/13 A3009 RMK A01 T01730133  RH  081%=      5-min Rain = 0
KMUS 161325Z 11012KT 17/13 A301 RMK A01 T01740133  RH  080%=      5-min Rain = 0
KMUS 161330Z 11012KT 17/13 A301 RMK A01 T01740133  RH  080%=      5-min Rain = 0
KMUS 161335Z 11011KT 18/13 A301 RMK A01 T01760134  RH  080%=      5-min Rain = 0
KMUS 161340Z 11010KT 18/13 A301 RMK A01 T01770134  RH  079%=      5-min Rain = 0
KMUS 161345Z 11011KT 18/13 A3011 RMK A01 T01780134  RH  079%=      5-min Rain = 0
KMUS 161350Z 11011KT 18/13 A3011 RMK A01 T01790134  RH  078%=      5-min Rain = 0
KMUS 161355Z 11011KT 18/14 A3011 RMK A01 T01800135  RH  078%=      5-min Rain = 0
KMUS 161400Z 11012KT 18/14 A3011 RMK A01 T01800135  RH  078%=      5-min Rain = 0
KMUS 161405Z 11012KT 18/14 A3011 RMK A01 T01820136  RH  077%=      5-min Rain = 0
KMUS 161410Z 12011KT 18/14 A3011 RMK A01 T01830136  RH  077%=      5-min Rain = 0
KMUS 161415Z 13010KT 18/14 A3011 RMK A01 T01840136  RH  076%=      5-min Rain = 0
KMUS 161420Z 12012KT 19/14 A3011 RMK A01 T01850136  RH  076%=      5-min Rain = 0
KMUS 161425Z 12011KT 19/14 A3011 RMK A01 T01860136  RH  076%=      5-min Rain = 0
KMUS 161430Z 13011KT 19/14 A3011 RMK A01 T01890136  RH  075%=      5-min Rain = 0
KMUS 161435Z 13010KT 19/14 A3011 RMK A01 T01910136  RH  073%=      5-min Rain = 0
KMUS 161440Z 13012KT 19/14 A3011 RMK A01 T01910135  RH  073%=      5-min Rain = 0
KMUS 161445Z 14012G17KT 19/13 A3011 RMK A01 T01930134  RH  072%=      5-min Rain = 0
KMUS 161450Z 14012KT 19/14 A3011 RMK A01 T01940135  RH  072%=      5-min Rain = 0
KMUS 161455Z 14013KT 20/14 A3011 RMK A01 T01960135  RH  070%=      5-min Rain = 0
KMUS 161500Z 14012G17KT 20/14 A3011 RMK A01 T01990135  RH  069%=      5-min Rain = 0
KMUS 161505Z 15012G17KT 20/13 A3011 RMK A01 T02010134  RH  068%=      5-min Rain = 0
KMUS 161510Z 14013KT 20/14 A3011 RMK A01 T02040135  RH  067%=      5-min Rain = 0
KMUS 161515Z 15012KT 21/14 A3011 RMK A01 T02070137  RH  067%=      5-min Rain = 0
KMUS 161520Z 16011G16KT 21/14 A301 RMK A01 T02110137  RH  065%=      5-min Rain = 0
KMUS 161525Z 16012KT 21/14 A301 RMK A01 T02110136  RH  065%=      5-min Rain = 0
KMUS 161530Z 16011KT 21/14 A301 RMK A01 T02100135  RH  065%=      5-min Rain = 0
KMUS 161535Z 17012KT 21/14 A301 RMK A01 T02130136  RH  064%=      5-min Rain = 0
KMUS 161540Z 16012G17KT 22/14 A301 RMK A01 T02150136  RH  063%=      5-min Rain = 0
KMUS 161545Z 18011KT 21/14 A301 RMK A01 T02130136  RH  064%=      5-min Rain = 0
KMUS 161550Z 16011G17KT 22/14 A3011 RMK A01 T02170136  RH  062%=      5-min Rain = 0
KMUS 161555Z 16010KT 22/14 A3011 RMK A01 T02160137  RH  064%=      5-min Rain = 0
KMUS 161600Z 18011G27KT 22/14 A301 RMK A01 T02170136  RH  062%=      5-min Rain = 0
KMUS 161605Z 17010G15KT 22/14 A301 RMK A01 T02180136  RH  062%=      5-min Rain = 0
KMUS 161610Z 18009KT 22/14 A301 RMK A01 T02200138  RH  062%=      5-min Rain = 0
KMUS 161615Z 18009KT 22/14 A301 RMK A01 T02240136  RH  060%=      5-min Rain = 0
KMUS 161620Z 17007G12KT 23/14 A301 RMK A01 T02250135  RH  059%=      5-min Rain = 0
KMUS 161625Z 19009G15KT 22/13 A301 RMK A01 T02210134  RH  060%=      5-min Rain = 0
KMUS 161630Z 17009G16KT 22/14 A301 RMK A01 T02230136  RH  060%=      5-min Rain = 0
KMUS 161635Z 19010KT 22/14 A301 RMK A01 T02230135  RH  060%=      5-min Rain = 0
KMUS 161640Z 17010KT 22/14 A301 RMK A01 T02230136  RH  060%=      5-min Rain = 0
KMUS 161645Z 18008G13KT 23/13 A301 RMK A01 T02250134  RH  059%=      5-min Rain = 0
KMUS 161650Z 18008KT 23/13 A301 RMK A01 T02270133  RH  058%=      5-min Rain = 0
KMUS 161655Z 18007G13KT 23/13 A3009 RMK A01 T02310133  RH  056%=      5-min Rain = 0
KMUS 161700Z 18008G14KT 23/14 A3009 RMK A01 T02320135  RH  057%=      5-min Rain = 0
KMUS 161705Z 15009G14KT 24/13 A3009 RMK A01 T02370134  RH  055%=      5-min Rain = 0
KMUS 161710Z 14009G15KT 24/13 A3009 RMK A01 T02400133  RH  053%=      5-min Rain = 0
KMUS 161715Z 16009KT 24/13 A3009 RMK A01 T02430134  RH  053%=      5-min Rain = 0
KMUS 161720Z 19010G15KT 24/13 A3009 RMK A01 T02430133  RH  052%=      5-min Rain = 0
KMUS 161725Z 19008KT 24/13 A3009 RMK A01 T02420132  RH  052%=      5-min Rain = 0
KMUS 161730Z 19008KT 25/13 A3009 RMK A01 T02450131  RH  051%=      5-min Rain = 0
KMUS 161735Z 16010G15KT 25/13 A3009 RMK A01 T02450133  RH  052%=      5-min Rain = 0
KMUS 161740Z 16009KT 25/13 A3009 RMK A01 T02520133  RH  050%=      5-min Rain = 0
KMUS 161745Z 18010KT 26/13 A3009 RMK A01 T02550131  RH  048%=      5-min Rain = 0
KMUS 161750Z 20007KT 25/13 A3009 RMK A01 T02500129  RH  049%=      5-min Rain = 0
KMUS 161755Z 20011G16KT 25/13 A3009 RMK A01 T02510127  RH  048%=      5-min Rain = 0
KMUS 161800Z 19009G14KT 26/13 A3009 RMK A01 T02550130  RH  048%=      5-min Rain = 0
KMUS 161805Z 18008G14KT 26/13 A3008 RMK A01 T02550128  RH  047%=      5-min Rain = 0
KMUS 161810Z 19007KT 26/13 A3008 RMK A01 T02590127  RH  046%=      5-min Rain = 0
KMUS 161815Z 19009G14KT 26/13 A3008 RMK A01 T02580128  RH  046%=      5-min Rain = 0
KMUS 161820Z 18007G13KT 26/13 A3008 RMK A01 T02620132  RH  046%=      5-min Rain = 0
KMUS 161825Z 16010G15KT 26/13 A3008 RMK A01 T02640129  RH  045%=      5-min Rain = 0
KMUS 161830Z 17009KT 26/13 A3008 RMK A01 T02640127  RH  044%=      5-min Rain = 0
KMUS 161835Z 18010G15KT 27/13 A3007 RMK A01 T02660125  RH  043%=      5-min Rain = 0
KMUS 161840Z 19009KT 27/13 A3007 RMK A01 T02670126  RH  043%=      5-min Rain = 0
KMUS 161845Z 21008KT 27/13 A3007 RMK A01 T02670125  RH  043%=      5-min Rain = 0
KMUS 161850Z 20010KT 27/13 A3007 RMK A01 T02670126  RH  043%=      5-min Rain = 0
KMUS 161855Z 21009KT 27/13 A3006 RMK A01 T02650126  RH  044%=      5-min Rain = 0
KMUS 161900Z 18011G19KT 27/12 A3006 RMK A01 T02690122  RH  041%=      5-min Rain = 0
KMUS 161905Z 17010G16KT 27/12 A3006 RMK A01 T02710118  RH  040%=      5-min Rain = 0
KMUS 161910Z 18008G14KT 27/12 A3006 RMK A01 T02720116  RH  039%=      5-min Rain = 0
KMUS 161915Z 19010G15KT 28/12 A3006 RMK A01 T02780118  RH  039%=      5-min Rain = 0
KMUS 161920Z 18007G12KT 28/12 A3006 RMK A01 T02790116  RH  038%=      5-min Rain = 0
KMUS 161925Z 19008G14KT 28/11 A3006 RMK A01 T02770112  RH  037%=      5-min Rain = 0
KMUS 161930Z 19008G16KT 28/11 A3005 RMK A01 T02770114  RH  037%=      5-min Rain = 0
KMUS 161935Z 16007KT 28/11 A3005 RMK A01 T02780113  RH  037%=      5-min Rain = 0
KMUS 161940Z 16007G12KT 28/11 A3005 RMK A01 T02790114  RH  037%=      5-min Rain = 0
KMUS 161945Z 20010KT 28/11 A3005 RMK A01 T02830114  RH  036%=      5-min Rain = 0
KMUS 161950Z 22007G14KT 28/11 A3004 RMK A01 T02820114  RH  036%=      5-min Rain = 0
KMUS 161955Z 19006G14KT 28/11 A3004 RMK A01 T02840113  RH  036%=      5-min Rain = 0
KMUS 162000Z 19009KT 29/11 A3004 RMK A01 T02890111  RH  034%=      5-min Rain = 0
KMUS 162005Z 19008G15KT 29/11 A3003 RMK A01 T02900112  RH  034%=      5-min Rain = 0
KMUS 162010Z 20009G14KT 29/11 A3003 RMK A01 T02910112  RH  034%=      5-min Rain = 0
KMUS 162015Z 20009G16KT 29/11 A3003 RMK A01 T02900112  RH  034%=      5-min Rain = 0
KMUS 162020Z 18009KT 29/11 A3003 RMK A01 T02930112  RH  034%=      5-min Rain = 0
KMUS 162025Z 18005G13KT 30/11 A3002 RMK A01 T02980113  RH  033%=      5-min Rain = 0
KMUS 162030Z 20011G18KT 30/11 A3002 RMK A01 T02990109  RH  032%=      5-min Rain = 0
KMUS 162035Z 18008G14KT 30/11 A3002 RMK A01 T02960105  RH  032%=      5-min Rain = 0
KMUS 162040Z 18007KT 30/11 A3002 RMK A01 T02990108  RH  032%=      5-min Rain = 0
KMUS 162045Z 20010KT 30/11 A3001 RMK A01 T03040108  RH  031%=      5-min Rain = 0
KMUS 162050Z 18009G15KT 30/10 A3001 RMK A01 T03030101  RH  030%=      5-min Rain = 0
KMUS 162055Z 19010G16KT 30/10 A3001 RMK A01 T03040104  RH  030%=      5-min Rain = 0
KMUS 162100Z 20005KT 30/10 A3001 RMK A01 T03010104  RH  031%=      5-min Rain = 0
KMUS 162105Z 22011G19KT 30/10 A30 RMK A01 T03040103  RH  030%=      5-min Rain = 0
KMUS 162110Z 22010KT 31/10 A30 RMK A01 T03050099  RH  029%=      5-min Rain = 0
KMUS 162115Z 19009G16KT 31/10 A30 RMK A01 T03050095  RH  028%=      5-min Rain = 0
KMUS 162120Z 19006G12KT 30/10 A30 RMK A01 T03040097  RH  029%=      5-min Rain = 0
KMUS 162125Z 17007KT 31/10 A2999 RMK A01 T03080097  RH  028%=      5-min Rain = 0
KMUS 162130Z 15008KT 31/09 A2999 RMK A01 T03100092  RH  027%=      5-min Rain = 0
KMUS 162135Z 15006G13KT 31/09 A2999 RMK A01 T03070087  RH  026%=      5-min Rain = 0
KMUS 162140Z 14006G12KT 31/09 A2998 RMK A01 T03100093  RH  027%=      5-min Rain = 0
KMUS 162145Z 19010G17KT 31/08 A2998 RMK A01 T03110083  RH  025%=      5-min Rain = 0
KMUS 162150Z 21010KT 31/07 A2998 RMK A01 T03140069  RH  022%=      5-min Rain = 0
KMUS 162155Z 19003G9KT 31/07 A2998 RMK A01 T03130070  RH  023%=      5-min Rain = 0
KMUS 162200Z 17005G11KT 31/08 A2998 RMK A01 T03140081  RH  024%=      5-min Rain = 0
KMUS 162205Z 20003KT 31/08 A2997 RMK A01 T03120083  RH  025%=      5-min Rain = 0
KMUS 162210Z 19003G8KT 31/08 A2997 RMK A01 T03120083  RH  025%=      5-min Rain = 0
KMUS 162215Z 19006G13KT 31/08 A2997 RMK A01 T03130084  RH  025%=      5-min Rain = 0
KMUS 162220Z 16009G14KT 32/08 A2997 RMK A01 T03180079  RH  023%=      5-min Rain = 0
KMUS 162225Z 18004KT 32/08 A2997 RMK A01 T03150075  RH  023%=      5-min Rain = 0
KMUS 162230Z 24005KT 32/04 A2996 RMK A01 T03170042  RH  018%=      5-min Rain = 0
KMUS 162235Z 26004KT 32/03 A2996 RMK A01 T03200034  RH  017%=      5-min Rain = 0
KMUS 162240Z 21009KT 32/04 A2996 RMK A01 T03180040  RH  018%=      5-min Rain = 0
KMUS 162245Z 18006KT 32/04 A2996 RMK A01 T03160039  RH  018%=      5-min Rain = 0
KMUS 162250Z 18009G14KT 32/04 A2996 RMK A01 T03160042  RH  018%=      5-min Rain = 0
KMUS 162255Z 17004KT 32/04 A2996 RMK A01 T03150039  RH  018%=      5-min Rain = 0
KMUS 162300Z 18004KT 32/04 A2996 RMK A01 T03170035  RH  017%=      5-min Rain = 0
KMUS 162305Z 29001KT 32/04 A2995 RMK A01 T03200040  RH  017%=      5-min Rain = 0
KMUS 162310Z 20005G10KT 32/04 A2995 RMK A01 T03230037  RH  017%=      5-min Rain = 0
KMUS 162315Z 20002G7KT 32/02 A2995 RMK A01 T03200018  RH  015%=      5-min Rain = 0
KMUS 162320Z 21005G14KT 33/01 A2995 RMK A01 T03250013  RH  014%=      5-min Rain = 0
KMUS 162325Z 23009G14KT 32/M01 A2995 RMK A01 T03231006  RH  012%=      5-min Rain = 0
KMUS 162330Z 24007G13KT 32/M01 A2995 RMK A01 T03221006  RH  012%=      5-min Rain = 0
KMUS 162335Z 26005G10KT 32/M00 A2995 RMK A01 T03211001  RH  013%=      5-min Rain = 0
KMUS 162340Z 27006KT 32/M00 A2995 RMK A01 T03211004  RH  013%=      5-min Rain = 0
KMUS 162345Z 28003KT 32/M01 A2995 RMK A01 T03191008  RH  012%=      5-min Rain = 0
KMUS 162350Z 24006KT 32/M01 A2995 RMK A01 T03211010  RH  012%=      5-min Rain = 0
KMUS 162355Z 24007KT 32/M02 A2995 RMK A01 T03201022  RH  011%=      5-min Rain = 0
KMUS 170000Z 23005KT 32/M03 A2994 RMK A01 T03201027  RH  011%=      5-min Rain = 0
KMUS 170005Z 26006KT 32/M02 A2994 RMK A01 T03211016  RH  011%=      5-min Rain = 0
KMUS 170010Z 25003KT 32/M02 A2994 RMK A01 T03201018  RH  011%=      5-min Rain = 0
KMUS 170015Z 30002KT 32/M01 A2994 RMK A01 T03231012  RH  012%=      5-min Rain = 0
KMUS 170020Z 31004KT 32/M02 A2994 RMK A01 T03241015  RH  011%=      5-min Rain = 0
KMUS 170025Z 34002KT 32/M02 A2994 RMK A01 T03201017  RH  011%=      5-min Rain = 0
KMUS 170030Z 06001KT 32/M02 A2994 RMK A01 T03201016  RH  012%=      5-min Rain = 0
KMUS 170035Z 09001KT 32/M01 A2994 RMK A01 T03191014  RH  012%=      5-min Rain = 0
KMUS 170040Z 28001KT 32/M01 A2994 RMK A01 T03211013  RH  012%=      5-min Rain = 0
KMUS 170045Z 28003KT 32/M01 A2994 RMK A01 T03201007  RH  012%=      5-min Rain = 0
KMUS 170050Z 25004KT 32/M00 A2994 RMK A01 T03181004  RH  013%=      5-min Rain = 0
KMUS 170055Z 19004KT 31/00 A2994 RMK A01 T03120002  RH  014%=      5-min Rain = 0
KMUS 170100Z 17004KT 31/01 A2994 RMK A01 T03080007  RH  015%=      5-min Rain = 0
KMUS 170105Z 14003KT 31/01 A2994 RMK A01 T03060005  RH  015%=      5-min Rain = 0
KMUS 170110Z 14003KT 30/01 A2994 RMK A01 T03030009  RH  015%=      5-min Rain = 0
KMUS 170115Z 14004KT 30/02 A2994 RMK A01 T03000019  RH  017%=      5-min Rain = 0
KMUS 170120Z 13004KT 30/02 A2994 RMK A01 T02960024  RH  018%=      5-min Rain = 0
KMUS 170125Z 12003KT 29/03 A2994 RMK A01 T02890034  RH  020%=      5-min Rain = 0
KMUS 170130Z 12004KT 28/03 A2994 RMK A01 T02810029  RH  020%=      5-min Rain = 0
KMUS 170135Z 11004KT 28/04 A2994 RMK A01 T02750037  RH  022%=      5-min Rain = 0
KMUS 170140Z 10004KT 27/04 A2994 RMK A01 T02670037  RH  023%=      5-min Rain = 0
KMUS 170145Z 10004KT 26/04 A2994 RMK A01 T02590038  RH  024%=      5-min Rain = 0
KMUS 170150Z 09004KT 25/04 A2994 RMK A01 T02510036  RH  025%=      5-min Rain = 0
KMUS 170155Z 10004KT 25/03 A2994 RMK A01 T02470032  RH  025%=      5-min Rain = 0
KMUS 170200Z 10003KT 24/03 A2995 RMK A01 T02430026  RH  025%=      5-min Rain = 0
KMUS 170205Z 11003KT 24/03 A2995 RMK A01 T02400026  RH  025%=      5-min Rain = 0
KMUS 170210Z 11003KT 24/03 A2995 RMK A01 T02370027  RH  026%=      5-min Rain = 0
KMUS 170215Z 08002KT 23/02 A2995 RMK A01 T02330023  RH  026%=      5-min Rain = 0
KMUS 170220Z 08007KT 23/02 A2995 RMK A01 T02310024  RH  026%=      5-min Rain = 0
KMUS 170225Z 10011KT 23/08 A2996 RMK A01 T02330076  RH  038%=      5-min Rain = 0
KMUS 170230Z 11011KT 24/09 A2996 RMK A01 T02430090  RH  039%=      5-min Rain = 0
KMUS 170235Z 11012KT 25/10 A2996 RMK A01 T02450099  RH  041%=      5-min Rain = 0
KMUS 170240Z 12012KT 25/10 A2996 RMK A01 T02490103  RH  041%=      5-min Rain = 0
KMUS 170245Z 12013KT 25/11 A2996 RMK A01 T02500105  RH  041%=      5-min Rain = 0
KMUS 170250Z 12014G19KT 25/11 A2996 RMK A01 T02510105  RH  041%=      5-min Rain = 0
KMUS 170255Z 12014G21KT 25/11 A2996 RMK A01 T02500106  RH  042%=      5-min Rain = 0
KMUS 170300Z 12016KT 25/11 A2996 RMK A01 T02500107  RH  042%=      5-min Rain = 0
KMUS 170305Z 12017G22KT 25/11 A2997 RMK A01 T02500107  RH  042%=      5-min Rain = 0
KMUS 170310Z 12018G23KT 25/11 A2997 RMK A01 T02500108  RH  042%=      5-min Rain = 0
KMUS 170315Z 12019G25KT 25/11 A2997 RMK A01 T02480108  RH  043%=      5-min Rain = 0
KMUS 170320Z 12017G22KT 25/11 A2997 RMK A01 T02460107  RH  043%=      5-min Rain = 0
KMUS 170325Z 13018KT 25/11 A2997 RMK A01 T02450106  RH  043%=      5-min Rain = 0
KMUS 170330Z 13017G22KT 24/11 A2997 RMK A01 T02430105  RH  043%=      5-min Rain = 0
KMUS 170335Z 13016G23KT 24/11 A2998 RMK A01 T02410105  RH  044%=      5-min Rain = 0
KMUS 170340Z 13016KT 24/11 A2998 RMK A01 T02400105  RH  044%=      5-min Rain = 0
KMUS 170345Z 13015KT 24/11 A2998 RMK A01 T02380106  RH  045%=      5-min Rain = 0
KMUS 170350Z 13015G20KT 24/11 A2998 RMK A01 T02360106  RH  045%=      5-min Rain = 0
KMUS 170355Z 13014KT 23/11 A2998 RMK A01 T02340106  RH  046%=      5-min Rain = 0
KMUS 170400Z 13014KT 23/11 A2998 RMK A01 T02320106  RH  047%=      5-min Rain = 0
KMUS 170405Z 13013KT 23/11 A2998 RMK A01 T02310106  RH  047%=      5-min Rain = 0
KMUS 170410Z 13013KT 23/11 A2999 RMK A01 T02300106  RH  047%=      5-min Rain = 0
KMUS 170415Z 13013KT 23/11 A2999 RMK A01 T02290106  RH  047%=      5-min Rain = 0
KMUS 170420Z 13012KT 23/11 A2999 RMK A01 T02270106  RH  048%=      5-min Rain = 0
KMUS 170425Z 13013KT 23/11 A2999 RMK A01 T02260107  RH  048%=      5-min Rain = 0
KMUS 170430Z 13012KT 23/11 A2999 RMK A01 T02260107  RH  048%=      5-min Rain = 0
KMUS 170435Z 13013G18KT 23/11 A2999 RMK A01 T02250107  RH  049%=      5-min Rain = 0
KMUS 170440Z 13013G18KT 23/11 A2999 RMK A01 T02250108  RH  049%=      5-min Rain = 0
KMUS 170445Z 13013KT 23/11 A2999 RMK A01 T02250108  RH  049%=      5-min Rain = 0
KMUS 170450Z 14013KT 22/11 A2999 RMK A01 T02230110  RH  050%=      5-min Rain = 0
KMUS 170455Z 14013KT 22/11 A2999 RMK A01 T02240110  RH  050%=      5-min Rain = 0

Page generated in 0.0435 seconds.